Deva — A8OK3 — position and weather

sailwx.info

Track history (hours):
 
Tides and Currents Weather Stations Pressure Air Temp Water Temp Dewpoint Dewpoint Depression Visibility Wind Speed Wind Dir Waves Ship Positions

Deva

Last reported at 2017-Feb-06 09:22 UTC. Time now 2017-Feb-20 18:27 UTC.
Position N 01°55' E 102°21'.
Warning: this ship's position is 14 days out of date.

Length 259 m; draft 12.2 m.

Type: Ship (hazmat cat A). MMSI: 636013644.

Date/timePositionNaut miles runAvg speedWind from/ knotsBaromVisibWave heightAir tempDewpointWater temp
2017-Feb-06 09:22N 01°55' E 102°21'1417.1
2017-Feb-06 08:33N 01°48' E 102°33'1716.9
2017-Feb-06 07:33N 01°41' E 102°48'6915.4
2017-Feb-06 03:04N 01°12' E 103°51'612.4
2017-Feb-06 02:32N 01°14' E 103°57'  
2017-Jan-31 02:33N 31°08' E 122°30'12 5.2
2017-Jan-31 00:19N 31°19' E 122°27'0 0.3
2017-Jan-30 23:26N 31°19' E 122°27'0 0.0
2017-Jan-30 22:28N 31°19' E 122°27'0 0.0
2017-Jan-30 21:28N 31°19' E 122°27'0 0.0
2017-Jan-30 20:28N 31°19' E 122°27'0 0.1
2017-Jan-30 19:31N 31°19' E 122°27'0 0.2
2017-Jan-30 18:28N 31°19' E 122°26'0 0.1
2017-Jan-30 16:19N 31°19' E 122°26'0 0.1
2017-Jan-30 15:22N 31°19' E 122°26'0 0.2
2017-Jan-30 14:07N 31°19' E 122°26'0 0.1
2017-Jan-30 13:28N 31°19' E 122°27'0 0.1
2017-Jan-30 12:31N 31°19' E 122°27'0 0.1
2017-Jan-30 11:31N 31°19' E 122°27'4 4.2
2017-Jan-30 10:31N 31°19' E 122°32'7 2.3
2017-Jan-30 07:26N 31°20' E 122°40'2 1.6
2017-Jan-30 06:26N 31°21' E 122°39'3 1.3
2017-Jan-30 04:13N 31°18' E 122°38'0 0.5
2017-Jan-30 03:21N 31°19' E 122°38'1 1.3
2017-Jan-30 02:15N 31°19' E 122°39'1 1.5
2017-Jan-30 01:27N 31°18' E 122°40'2 0.9
2017-Jan-29 23:31N 31°17' E 122°38'1 1.2
2017-Jan-29 22:23N 31°16' E 122°37'4 4.0
2017-Jan-29 21:23N 31°12' E 122°36'2 1.0
2017-Jan-29 19:31N 31°10' E 122°34'1010.3
2017-Jan-29 18:33N 31°06' E 122°24'1414.2
2017-Jan-29 17:33N 31°12' E 122°09'1414.5
2017-Jan-29 16:33N 31°16' E 121°53'1313.0
2017-Jan-29 15:34N 31°21' E 121°39'3 2.8
2017-Jan-29 14:31N 31°22' E 121°36'0 0.0
2017-Jan-29 13:31N 31°22' E 121°36'0 0.0
2017-Jan-29 12:31N 31°22' E 121°36'0 0.0
2017-Jan-29 11:31N 31°22' E 121°36'0 0.0
2017-Jan-29 10:31N 31°22' E 121°36'0 0.0
2017-Jan-29 09:31N 31°22' E 121°36'0 0.0
2017-Jan-29 08:31N 31°22' E 121°36'0 0.0
2017-Jan-29 07:31N 31°22' E 121°36'0 0.0
2017-Jan-29 06:31N 31°22' E 121°36'0 0.0
2017-Jan-29 05:31N 31°22' E 121°36'0 0.0
2017-Jan-29 04:31N 31°22' E 121°36'0 0.0
2017-Jan-29 03:31N 31°22' E 121°36'0 0.5
2017-Jan-29 02:34N 31°23' E 121°36'1110.8
2017-Jan-29 01:33N 31°18' E 121°47'1312.7
2017-Jan-29 00:34N 31°15' E 122°01'1211.8
2017-Jan-28 23:34N 31°09' E 122°13'1212.3
2017-Jan-28 22:33N 31°07' E 122°28'1211.9
2017-Jan-28 21:33N 31°07' E 122°42'  
Track history (hours):
 
Tides and Currents Weather Stations Pressure Air Temp Water Temp Dewpoint Dewpoint Depression Visibility Wind Speed Wind Dir Waves Ship Positions

Deva

Last reported at 2017-Feb-06 09:22 UTC. Time now 2017-Feb-20 18:27 UTC.
Position N 01°55' E 102°21'.
Warning: this ship's position is 14 days out of date.

Length 259 m; draft 12.2 m.

Type: Ship (hazmat cat A). MMSI: 636013644.

Date/timePositionNaut miles runAvg speedWind from/ knotsBaromVisibWave heightAir tempDewpointWater temp
2017-Feb-06 09:22N 01°55' E 102°21'1417.1
2017-Feb-06 08:33N 01°48' E 102°33'1716.9
2017-Feb-06 07:33N 01°41' E 102°48'6915.4
2017-Feb-06 03:04N 01°12' E 103°51'612.4
2017-Feb-06 02:32N 01°14' E 103°57'  
2017-Jan-31 02:33N 31°08' E 122°30'12 5.2
2017-Jan-31 00:19N 31°19' E 122°27'0 0.3
2017-Jan-30 23:26N 31°19' E 122°27'0 0.0
2017-Jan-30 22:28N 31°19' E 122°27'0 0.0
2017-Jan-30 21:28N 31°19' E 122°27'0 0.0
2017-Jan-30 20:28N 31°19' E 122°27'0 0.1
2017-Jan-30 19:31N 31°19' E 122°27'0 0.2
2017-Jan-30 18:28N 31°19' E 122°26'0 0.1
2017-Jan-30 16:19N 31°19' E 122°26'0 0.1
2017-Jan-30 15:22N 31°19' E 122°26'0 0.2
2017-Jan-30 14:07N 31°19' E 122°26'0 0.1
2017-Jan-30 13:28N 31°19' E 122°27'0 0.1
2017-Jan-30 12:31N 31°19' E 122°27'0 0.1
2017-Jan-30 11:31N 31°19' E 122°27'4 4.2
2017-Jan-30 10:31N 31°19' E 122°32'7 2.3
2017-Jan-30 07:26N 31°20' E 122°40'2 1.6
2017-Jan-30 06:26N 31°21' E 122°39'3 1.3
2017-Jan-30 04:13N 31°18' E 122°38'0 0.5
2017-Jan-30 03:21N 31°19' E 122°38'1 1.3
2017-Jan-30 02:15N 31°19' E 122°39'1 1.5
2017-Jan-30 01:27N 31°18' E 122°40'2 0.9
2017-Jan-29 23:31N 31°17' E 122°38'1 1.2
2017-Jan-29 22:23N 31°16' E 122°37'4 4.0
2017-Jan-29 21:23N 31°12' E 122°36'2 1.0
2017-Jan-29 19:31N 31°10' E 122°34'1010.3
2017-Jan-29 18:33N 31°06' E 122°24'1414.2
2017-Jan-29 17:33N 31°12' E 122°09'1414.5
2017-Jan-29 16:33N 31°16' E 121°53'1313.0
2017-Jan-29 15:34N 31°21' E 121°39'3 2.8
2017-Jan-29 14:31N 31°22' E 121°36'0 0.0
2017-Jan-29 13:31N 31°22' E 121°36'0 0.0
2017-Jan-29 12:31N 31°22' E 121°36'0 0.0
2017-Jan-29 11:31N 31°22' E 121°36'0 0.0
2017-Jan-29 10:31N 31°22' E 121°36'0 0.0
2017-Jan-29 09:31N 31°22' E 121°36'0 0.0
2017-Jan-29 08:31N 31°22' E 121°36'0 0.0
2017-Jan-29 07:31N 31°22' E 121°36'0 0.0
2017-Jan-29 06:31N 31°22' E 121°36'0 0.0
2017-Jan-29 05:31N 31°22' E 121°36'0 0.0
2017-Jan-29 04:31N 31°22' E 121°36'0 0.0
2017-Jan-29 03:31N 31°22' E 121°36'0 0.5
2017-Jan-29 02:34N 31°23' E 121°36'1110.8
2017-Jan-29 01:33N 31°18' E 121°47'1312.7
2017-Jan-29 00:34N 31°15' E 122°01'1211.8
2017-Jan-28 23:34N 31°09' E 122°13'1212.3
2017-Jan-28 22:33N 31°07' E 122°28'1211.9
2017-Jan-28 21:33N 31°07' E 122°42'  

Dump ship's entire track history